Archival Weather

Barra Do Garcas

Barra Do Garcas, Brazil (SBBW)

Report from: Saturday, December 2, 2023 2:00 PM -03
Current time: Wednesday, April 24, 2024 4:49 PM -03

Current weather – Weather history – Daily summaries
Weather forecast

Present weatherThunderstorm
Temperature37.0°C (98.6°F)
Heat index51.6°C (124.9°F)
Dew point28.0°C (82.4°F)
Winds 6 kts (3.1 m/s, 6.9 mph) Northwest (310°)
Visibility6.2 mi. (10 km)
Clouds Scattered clouds 2,000 ft. (610 m)
Few clouds with cumulonimbus 2,500 ft. (762 m)
Altimeter29.83 in.Hg (1010 mB)
Relative humidity60 %
Density altitude3,094 ft. (943 m)
Flight conditions Visual Meteorological Conditions
Raw dataSBBW 021700Z 31006KT 9999 TS SCT020 FEW025CB 37/28 Q1010
An error has occurred. This application may no longer respond until reloaded. Reload 🗙